sensor_id;sensor_type;location;lat;lon;timestamp;P1;durP1;ratioP1;P2;durP2;ratioP2
70165;SDS011;57541;47.408;18.822;2022-11-22T00:00:24;52.78;;;21.02;;
70165;SDS011;57541;47.408;18.822;2022-11-22T00:00:58;49.28;;;20.65;;
70165;SDS011;57541;47.408;18.822;2022-11-22T00:01:29;51.67;;;20.30;;
70165;SDS011;57541;47.408;18.822;2022-11-22T00:02:01;48.03;;;20.55;;
70165;SDS011;57541;47.408;18.822;2022-11-22T00:02:35;49.28;;;20.80;;
70165;SDS011;57541;47.408;18.822;2022-11-22T00:03:07;47.78;;;21.70;;
70165;SDS011;57541;47.408;18.822;2022-11-22T00:03:39;48.15;;;20.05;;
70165;SDS011;57541;47.408;18.822;2022-11-22T00:04:11;48.70;;;19.88;;
70165;SDS011;57541;47.408;18.822;2022-11-22T00:04:42;48.13;;;20.60;;
70165;SDS011;57541;47.408;18.822;2022-11-22T00:05:14;42.95;;;19.95;;
70165;SDS011;57541;47.408;18.822;2022-11-22T00:05:45;46.58;;;21.08;;
70165;SDS011;57541;47.408;18.822;2022-11-22T00:06:17;60.33;;;20.17;;
70165;SDS011;57541;47.408;18.822;2022-11-22T00:06:48;48.00;;;19.35;;
70165;SDS011;57541;47.408;18.822;2022-11-22T00:07:20;49.22;;;19.50;;
70165;SDS011;57541;47.408;18.822;2022-11-22T00:07:52;53.25;;;20.35;;
70165;SDS011;57541;47.408;18.822;2022-11-22T00:08:23;52.13;;;20.55;;
70165;SDS011;57541;47.408;18.822;2022-11-22T00:08:55;50.35;;;19.88;;
70165;SDS011;57541;47.408;18.822;2022-11-22T00:09:27;54.30;;;20.27;;
70165;SDS011;57541;47.408;18.822;2022-11-22T00:09:59;57.13;;;18.92;;
70165;SDS011;57541;47.408;18.822;2022-11-22T00:10:30;60.30;;;19.98;;
70165;SDS011;57541;47.408;18.822;2022-11-22T00:11:02;56.10;;;19.20;;
70165;SDS011;57541;47.408;18.822;2022-11-22T00:11:33;60.10;;;21.38;;
70165;SDS011;57541;47.408;18.822;2022-11-22T00:12:05;70.90;;;20.40;;
70165;SDS011;57541;47.408;18.822;2022-11-22T00:12:38;73.65;;;20.80;;
70165;SDS011;57541;47.408;18.822;2022-11-22T00:13:10;69.85;;;19.60;;
70165;SDS011;57541;47.408;18.822;2022-11-22T00:13:42;59.83;;;19.27;;
70165;SDS011;57541;47.408;18.822;2022-11-22T00:14:13;79.78;;;21.13;;
70165;SDS011;57541;47.408;18.822;2022-11-22T00:14:45;75.32;;;20.05;;
70165;SDS011;57541;47.408;18.822;2022-11-22T00:15:16;61.33;;;19.90;;
70165;SDS011;57541;47.408;18.822;2022-11-22T00:16:01;47.40;;;19.83;;
70165;SDS011;57541;47.408;18.822;2022-11-22T00:16:34;47.42;;;19.02;;
70165;SDS011;57541;47.408;18.822;2022-11-22T00:17:06;60.40;;;22.02;;
70165;SDS011;57541;47.408;18.822;2022-11-22T00:17:37;52.78;;;19.77;;
70165;SDS011;57541;47.408;18.822;2022-11-22T00:18:10;44.85;;;20.15;;
70165;SDS011;57541;47.408;18.822;2022-11-22T00:18:42;41.17;;;18.25;;
70165;SDS011;57541;47.408;18.822;2022-11-22T00:19:13;42.80;;;18.85;;
70165;SDS011;57541;47.408;18.822;2022-11-22T00:19:45;50.88;;;20.13;;
70165;SDS011;57541;47.408;18.822;2022-11-22T00:20:16;51.53;;;20.23;;
70165;SDS011;57541;47.408;18.822;2022-11-22T00:20:48;51.50;;;20.25;;
70165;SDS011;57541;47.408;18.822;2022-11-22T00:21:20;50.45;;;20.48;;
70165;SDS011;57541;47.408;18.822;2022-11-22T00:21:51;43.42;;;19.70;;
70165;SDS011;57541;47.408;18.822;2022-11-22T00:22:23;44.83;;;20.05;;
70165;SDS011;57541;47.408;18.822;2022-11-22T00:22:55;44.55;;;19.35;;
70165;SDS011;57541;47.408;18.822;2022-11-22T00:23:27;43.95;;;20.30;;
70165;SDS011;57541;47.408;18.822;2022-11-22T00:23:59;41.58;;;19.00;;
70165;SDS011;57541;47.408;18.822;2022-11-22T00:24:31;41.50;;;19.25;;
70165;SDS011;57541;47.408;18.822;2022-11-22T00:25:03;38.45;;;18.48;;
70165;SDS011;57541;47.408;18.822;2022-11-22T00:25:35;43.50;;;19.50;;
70165;SDS011;57541;47.408;18.822;2022-11-22T00:26:06;43.33;;;19.77;;
70165;SDS011;57541;47.408;18.822;2022-11-22T00:26:42;42.80;;;19.92;;
70165;SDS011;57541;47.408;18.822;2022-11-22T00:27:13;42.70;;;19.65;;
70165;SDS011;57541;47.408;18.822;2022-11-22T00:27:45;42.25;;;18.65;;
70165;SDS011;57541;47.408;18.822;2022-11-22T00:28:17;38.17;;;17.52;;
70165;SDS011;57541;47.408;18.822;2022-11-22T00:28:48;37.38;;;18.17;;
70165;SDS011;57541;47.408;18.822;2022-11-22T00:29:20;38.53;;;17.85;;
70165;SDS011;57541;47.408;18.822;2022-11-22T00:29:51;37.67;;;18.10;;
70165;SDS011;57541;47.408;18.822;2022-11-22T00:30:23;40.25;;;18.20;;
70165;SDS011;57541;47.408;18.822;2022-11-22T00:30:55;41.83;;;18.33;;
70165;SDS011;57541;47.408;18.822;2022-11-22T00:31:26;38.00;;;18.25;;
70165;SDS011;57541;47.408;18.822;2022-11-22T00:31:58;39.83;;;17.85;;
70165;SDS011;57541;47.408;18.822;2022-11-22T00:32:29;37.17;;;16.88;;
70165;SDS011;57541;47.408;18.822;2022-11-22T00:33:01;32.92;;;16.67;;
70165;SDS011;57541;47.408;18.822;2022-11-22T00:33:33;35.17;;;17.52;;
70165;SDS011;57541;47.408;18.822;2022-11-22T00:34:04;38.85;;;16.55;;
70165;SDS011;57541;47.408;18.822;2022-11-22T00:34:36;38.30;;;17.15;;
70165;SDS011;57541;47.408;18.822;2022-11-22T00:35:08;37.70;;;17.02;;
70165;SDS011;57541;47.408;18.822;2022-11-22T00:35:41;36.35;;;16.33;;
70165;SDS011;57541;47.408;18.822;2022-11-22T00:36:12;36.10;;;17.02;;
70165;SDS011;57541;47.408;18.822;2022-11-22T00:36:44;35.95;;;17.17;;
70165;SDS011;57541;47.408;18.822;2022-11-22T00:37:16;42.47;;;17.27;;
70165;SDS011;57541;47.408;18.822;2022-11-22T00:37:47;43.40;;;16.50;;
70165;SDS011;57541;47.408;18.822;2022-11-22T00:38:19;36.78;;;18.10;;
70165;SDS011;57541;47.408;18.822;2022-11-22T00:38:50;37.47;;;17.15;;
70165;SDS011;57541;47.408;18.822;2022-11-22T00:39:23;35.17;;;16.45;;
70165;SDS011;57541;47.408;18.822;2022-11-22T00:39:54;39.78;;;17.25;;
70165;SDS011;57541;47.408;18.822;2022-11-22T00:40:26;34.50;;;16.75;;
70165;SDS011;57541;47.408;18.822;2022-11-22T00:40:57;35.95;;;17.52;;
70165;SDS011;57541;47.408;18.822;2022-11-22T00:41:29;37.45;;;16.20;;
70165;SDS011;57541;47.408;18.822;2022-11-22T00:42:01;36.28;;;15.35;;
70165;SDS011;57541;47.408;18.822;2022-11-22T00:42:32;36.38;;;16.27;;
70165;SDS011;57541;47.408;18.822;2022-11-22T00:43:04;36.90;;;16.25;;
70165;SDS011;57541;47.408;18.822;2022-11-22T00:43:36;32.58;;;16.70;;
70165;SDS011;57541;47.408;18.822;2022-11-22T00:44:07;37.95;;;16.35;;
70165;SDS011;57541;47.408;18.822;2022-11-22T00:44:39;34.28;;;17.10;;
70165;SDS011;57541;47.408;18.822;2022-11-22T00:45:11;31.77;;;15.63;;
70165;SDS011;57541;47.408;18.822;2022-11-22T00:45:42;34.78;;;15.98;;
70165;SDS011;57541;47.408;18.822;2022-11-22T00:46:14;34.85;;;15.88;;
70165;SDS011;57541;47.408;18.822;2022-11-22T00:46:45;42.60;;;17.38;;
70165;SDS011;57541;47.408;18.822;2022-11-22T00:47:17;34.25;;;15.75;;
70165;SDS011;57541;47.408;18.822;2022-11-22T00:47:48;36.72;;;15.57;;
70165;SDS011;57541;47.408;18.822;2022-11-22T00:48:20;33.13;;;16.30;;
70165;SDS011;57541;47.408;18.822;2022-11-22T00:48:52;40.65;;;17.15;;
70165;SDS011;57541;47.408;18.822;2022-11-22T00:49:24;38.58;;;16.45;;
70165;SDS011;57541;47.408;18.822;2022-11-22T00:49:55;34.97;;;16.40;;
70165;SDS011;57541;47.408;18.822;2022-11-22T00:50:27;36.50;;;16.15;;
70165;SDS011;57541;47.408;18.822;2022-11-22T00:50:59;34.83;;;16.70;;
70165;SDS011;57541;47.408;18.822;2022-11-22T00:51:30;36.83;;;16.42;;
70165;SDS011;57541;47.408;18.822;2022-11-22T00:52:02;38.65;;;17.02;;
70165;SDS011;57541;47.408;18.822;2022-11-22T00:52:33;35.75;;;16.98;;
70165;SDS011;57541;47.408;18.822;2022-11-22T00:53:05;34.13;;;17.48;;
70165;SDS011;57541;47.408;18.822;2022-11-22T00:53:37;35.50;;;16.60;;
70165;SDS011;57541;47.408;18.822;2022-11-22T00:54:08;41.92;;;17.45;;
70165;SDS011;57541;47.408;18.822;2022-11-22T00:54:40;35.05;;;16.92;;
70165;SDS011;57541;47.408;18.822;2022-11-22T00:55:12;35.45;;;16.35;;
70165;SDS011;57541;47.408;18.822;2022-11-22T00:55:43;32.47;;;16.23;;
70165;SDS011;57541;47.408;18.822;2022-11-22T00:56:15;32.28;;;15.77;;
70165;SDS011;57541;47.408;18.822;2022-11-22T00:56:47;36.92;;;16.90;;
70165;SDS011;57541;47.408;18.822;2022-11-22T00:57:19;35.97;;;16.48;;
70165;SDS011;57541;47.408;18.822;2022-11-22T00:57:50;42.75;;;16.15;;
70165;SDS011;57541;47.408;18.822;2022-11-22T00:58:22;34.80;;;15.23;;
70165;SDS011;57541;47.408;18.822;2022-11-22T00:58:54;32.35;;;15.27;;
70165;SDS011;57541;47.408;18.822;2022-11-22T00:59:25;33.45;;;16.33;;
70165;SDS011;57541;47.408;18.822;2022-11-22T00:59:57;42.17;;;16.08;;
70165;SDS011;57541;47.408;18.822;2022-11-22T01:00:29;37.97;;;16.00;;
70165;SDS011;57541;47.408;18.822;2022-11-22T01:01:01;33.30;;;14.98;;
70165;SDS011;57541;47.408;18.822;2022-11-22T01:01:32;34.33;;;16.92;;
70165;SDS011;57541;47.408;18.822;2022-11-22T01:02:04;32.70;;;15.30;;
70165;SDS011;57541;47.408;18.822;2022-11-22T01:02:36;35.05;;;15.98;;
70165;SDS011;57541;47.408;18.822;2022-11-22T01:03:11;38.95;;;16.55;;
70165;SDS011;57541;47.408;18.822;2022-11-22T01:03:43;37.08;;;14.93;;
70165;SDS011;57541;47.408;18.822;2022-11-22T01:04:14;40.22;;;15.48;;
70165;SDS011;57541;47.408;18.822;2022-11-22T01:04:46;35.00;;;15.45;;
70165;SDS011;57541;47.408;18.822;2022-11-22T01:05:17;30.88;;;15.00;;
70165;SDS011;57541;47.408;18.822;2022-11-22T01:05:50;37.22;;;16.60;;
70165;SDS011;57541;47.408;18.822;2022-11-22T01:06:22;33.63;;;15.60;;
70165;SDS011;57541;47.408;18.822;2022-11-22T01:06:53;43.63;;;16.85;;
70165;SDS011;57541;47.408;18.822;2022-11-22T01:07:25;42.97;;;15.15;;
70165;SDS011;57541;47.408;18.822;2022-11-22T01:07:56;37.13;;;16.23;;
70165;SDS011;57541;47.408;18.822;2022-11-22T01:08:28;36.75;;;15.82;;
70165;SDS011;57541;47.408;18.822;2022-11-22T01:09:00;36.22;;;15.80;;
70165;SDS011;57541;47.408;18.822;2022-11-22T01:09:31;44.05;;;16.50;;
70165;SDS011;57541;47.408;18.822;2022-11-22T01:10:03;34.70;;;16.83;;
70165;SDS011;57541;47.408;18.822;2022-11-22T01:10:35;39.47;;;16.83;;
70165;SDS011;57541;47.408;18.822;2022-11-22T01:11:07;39.65;;;16.27;;
70165;SDS011;57541;47.408;18.822;2022-11-22T01:11:40;40.55;;;16.90;;
70165;SDS011;57541;47.408;18.822;2022-11-22T01:12:13;46.38;;;17.33;;
70165;SDS011;57541;47.408;18.822;2022-11-22T01:12:44;42.13;;;17.40;;
70165;SDS011;57541;47.408;18.822;2022-11-22T01:13:16;48.50;;;17.25;;
70165;SDS011;57541;47.408;18.822;2022-11-22T01:13:48;37.55;;;16.15;;
70165;SDS011;57541;47.408;18.822;2022-11-22T01:14:19;42.30;;;17.05;;
70165;SDS011;57541;47.408;18.822;2022-11-22T01:14:51;42.03;;;16.83;;
70165;SDS011;57541;47.408;18.822;2022-11-22T01:15:23;46.40;;;17.42;;
70165;SDS011;57541;47.408;18.822;2022-11-22T01:15:59;48.50;;;17.25;;
70165;SDS011;57541;47.408;18.822;2022-11-22T01:16:32;43.90;;;17.13;;
70165;SDS011;57541;47.408;18.822;2022-11-22T01:17:03;40.55;;;17.05;;
70165;SDS011;57541;47.408;18.822;2022-11-22T01:17:35;44.92;;;17.63;;
70165;SDS011;57541;47.408;18.822;2022-11-22T01:18:07;51.40;;;17.65;;
70165;SDS011;57541;47.408;18.822;2022-11-22T01:18:39;41.80;;;18.00;;
70165;SDS011;57541;47.408;18.822;2022-11-22T01:19:11;57.65;;;18.13;;
70165;SDS011;57541;47.408;18.822;2022-11-22T01:19:43;40.72;;;16.67;;
70165;SDS011;57541;47.408;18.822;2022-11-22T01:20:14;52.88;;;18.20;;
70165;SDS011;57541;47.408;18.822;2022-11-22T01:20:46;45.83;;;16.55;;
70165;SDS011;57541;47.408;18.822;2022-11-22T01:21:18;54.15;;;16.67;;
70165;SDS011;57541;47.408;18.822;2022-11-22T01:21:49;44.60;;;17.08;;
70165;SDS011;57541;47.408;18.822;2022-11-22T01:22:21;46.50;;;17.65;;
70165;SDS011;57541;47.408;18.822;2022-11-22T01:22:52;56.90;;;18.15;;
70165;SDS011;57541;47.408;18.822;2022-11-22T01:23:24;49.13;;;17.17;;
70165;SDS011;57541;47.408;18.822;2022-11-22T01:23:56;43.72;;;17.35;;
70165;SDS011;57541;47.408;18.822;2022-11-22T01:24:28;44.72;;;16.23;;
70165;SDS011;57541;47.408;18.822;2022-11-22T01:24:59;42.13;;;16.80;;
70165;SDS011;57541;47.408;18.822;2022-11-22T01:25:31;48.97;;;16.17;;
70165;SDS011;57541;47.408;18.822;2022-11-22T01:26:05;42.88;;;17.30;;
70165;SDS011;57541;47.408;18.822;2022-11-22T01:26:38;42.17;;;17.35;;
70165;SDS011;57541;47.408;18.822;2022-11-22T01:27:09;43.85;;;17.60;;
70165;SDS011;57541;47.408;18.822;2022-11-22T01:27:41;40.85;;;17.65;;
70165;SDS011;57541;47.408;18.822;2022-11-22T01:28:13;42.88;;;16.60;;
70165;SDS011;57541;47.408;18.822;2022-11-22T01:28:46;54.88;;;17.17;;
70165;SDS011;57541;47.408;18.822;2022-11-22T01:29:17;41.17;;;16.45;;
70165;SDS011;57541;47.408;18.822;2022-11-22T01:29:49;42.95;;;16.73;;
70165;SDS011;57541;47.408;18.822;2022-11-22T01:30:21;38.40;;;17.45;;
70165;SDS011;57541;47.408;18.822;2022-11-22T01:30:53;37.47;;;15.45;;
70165;SDS011;57541;47.408;18.822;2022-11-22T01:31:25;35.95;;;16.55;;
70165;SDS011;57541;47.408;18.822;2022-11-22T01:31:56;40.15;;;16.08;;
70165;SDS011;57541;47.408;18.822;2022-11-22T01:32:28;36.78;;;16.00;;
70165;SDS011;57541;47.408;18.822;2022-11-22T01:32:59;40.92;;;15.63;;
70165;SDS011;57541;47.408;18.822;2022-11-22T01:33:31;37.72;;;16.45;;
70165;SDS011;57541;47.408;18.822;2022-11-22T01:34:03;40.85;;;14.85;;
70165;SDS011;57541;47.408;18.822;2022-11-22T01:34:35;34.42;;;15.07;;
70165;SDS011;57541;47.408;18.822;2022-11-22T01:35:07;35.05;;;14.38;;
70165;SDS011;57541;47.408;18.822;2022-11-22T01:35:41;36.53;;;14.70;;
70165;SDS011;57541;47.408;18.822;2022-11-22T01:36:13;34.20;;;14.88;;
70165;SDS011;57541;47.408;18.822;2022-11-22T01:36:44;37.65;;;15.85;;
70165;SDS011;57541;47.408;18.822;2022-11-22T01:37:16;35.13;;;14.32;;
70165;SDS011;57541;47.408;18.822;2022-11-22T01:37:47;35.10;;;14.52;;
70165;SDS011;57541;47.408;18.822;2022-11-22T01:38:19;37.20;;;14.30;;
70165;SDS011;57541;47.408;18.822;2022-11-22T01:38:51;34.97;;;14.48;;
70165;SDS011;57541;47.408;18.822;2022-11-22T01:39:22;31.80;;;15.05;;
70165;SDS011;57541;47.408;18.822;2022-11-22T01:39:54;30.85;;;14.07;;
70165;SDS011;57541;47.408;18.822;2022-11-22T01:40:25;40.05;;;14.48;;
70165;SDS011;57541;47.408;18.822;2022-11-22T01:40:57;42.42;;;14.50;;
70165;SDS011;57541;47.408;18.822;2022-11-22T01:41:29;32.92;;;15.00;;
70165;SDS011;57541;47.408;18.822;2022-11-22T01:42:01;38.88;;;15.52;;
70165;SDS011;57541;47.408;18.822;2022-11-22T01:42:42;36.20;;;15.18;;
70165;SDS011;57541;47.408;18.822;2022-11-22T01:43:18;34.63;;;15.38;;
70165;SDS011;57541;47.408;18.822;2022-11-22T01:43:53;30.70;;;13.75;;
70165;SDS011;57541;47.408;18.822;2022-11-22T01:44:26;35.28;;;14.18;;
70165;SDS011;57541;47.408;18.822;2022-11-22T01:45:32;36.60;;;14.88;;
70165;SDS011;57541;47.408;18.822;2022-11-22T01:46:04;34.53;;;14.38;;
70165;SDS011;57541;47.408;18.822;2022-11-22T01:46:40;37.30;;;13.32;;
70165;SDS011;57541;47.408;18.822;2022-11-22T01:47:13;41.72;;;14.57;;
70165;SDS011;57541;47.408;18.822;2022-11-22T01:47:47;36.10;;;14.13;;
70165;SDS011;57541;47.408;18.822;2022-11-22T01:48:30;30.92;;;13.57;;
70165;SDS011;57541;47.408;18.822;2022-11-22T01:49:11;37.05;;;14.88;;
70165;SDS011;57541;47.408;18.822;2022-11-22T01:50:26;36.78;;;15.35;;
70165;SDS011;57541;47.408;18.822;2022-11-22T01:51:01;36.17;;;15.85;;
70165;SDS011;57541;47.408;18.822;2022-11-22T01:51:45;38.38;;;13.55;;
70165;SDS011;57541;47.408;18.822;2022-11-22T01:52:20;35.40;;;15.20;;
70165;SDS011;57541;47.408;18.822;2022-11-22T01:52:55;41.45;;;15.10;;
70165;SDS011;57541;47.408;18.822;2022-11-22T01:53:34;42.50;;;15.05;;
70165;SDS011;57541;47.408;18.822;2022-11-22T01:54:10;40.58;;;15.45;;
70165;SDS011;57541;47.408;18.822;2022-11-22T01:54:52;42.45;;;15.93;;
70165;SDS011;57541;47.408;18.822;2022-11-22T01:55:27;33.63;;;15.63;;
70165;SDS011;57541;47.408;18.822;2022-11-22T01:55:58;37.42;;;15.82;;
70165;SDS011;57541;47.408;18.822;2022-11-22T01:56:32;46.20;;;15.95;;
70165;SDS011;57541;47.408;18.822;2022-11-22T01:57:06;38.53;;;16.48;;
70165;SDS011;57541;47.408;18.822;2022-11-22T01:57:40;42.85;;;16.13;;
70165;SDS011;57541;47.408;18.822;2022-11-22T01:58:14;38.50;;;15.90;;
70165;SDS011;57541;47.408;18.822;2022-11-22T01:58:47;43.88;;;15.32;;
70165;SDS011;57541;47.408;18.822;2022-11-22T01:59:24;34.90;;;14.98;;
70165;SDS011;57541;47.408;18.822;2022-11-22T02:00:00;42.35;;;15.80;;
70165;SDS011;57541;47.408;18.822;2022-11-22T02:01:15;37.30;;;15.57;;
70165;SDS011;57541;47.408;18.822;2022-11-22T02:01:47;43.92;;;15.68;;
70165;SDS011;57541;47.408;18.822;2022-11-22T02:02:19;36.97;;;15.82;;
70165;SDS011;57541;47.408;18.822;2022-11-22T02:02:52;47.47;;;16.00;;
70165;SDS011;57541;47.408;18.822;2022-11-22T02:03:27;34.92;;;14.52;;
70165;SDS011;57541;47.408;18.822;2022-11-22T02:04:02;37.40;;;16.20;;
70165;SDS011;57541;47.408;18.822;2022-11-22T02:04:35;43.70;;;15.30;;
70165;SDS011;57541;47.408;18.822;2022-11-22T02:05:09;41.65;;;15.60;;
70165;SDS011;57541;47.408;18.822;2022-11-22T02:05:45;39.83;;;15.32;;
70165;SDS011;57541;47.408;18.822;2022-11-22T02:06:17;41.05;;;15.15;;
70165;SDS011;57541;47.408;18.822;2022-11-22T02:06:52;38.28;;;15.90;;
70165;SDS011;57541;47.408;18.822;2022-11-22T02:07:34;36.38;;;14.30;;
70165;SDS011;57541;47.408;18.822;2022-11-22T02:08:31;33.47;;;14.13;;
70165;SDS011;57541;47.408;18.822;2022-11-22T02:09:10;33.80;;;13.95;;
70165;SDS011;57541;47.408;18.822;2022-11-22T02:09:43;43.70;;;14.63;;
70165;SDS011;57541;47.408;18.822;2022-11-22T02:10:16;36.28;;;14.88;;
70165;SDS011;57541;47.408;18.822;2022-11-22T02:10:51;44.80;;;14.02;;
70165;SDS011;57541;47.408;18.822;2022-11-22T02:11:25;47.45;;;15.35;;
70165;SDS011;57541;47.408;18.822;2022-11-22T02:12:04;41.70;;;15.35;;
70165;SDS011;57541;47.408;18.822;2022-11-22T02:12:38;34.38;;;15.10;;
70165;SDS011;57541;47.408;18.822;2022-11-22T02:13:10;43.25;;;14.77;;
70165;SDS011;57541;47.408;18.822;2022-11-22T02:13:44;37.03;;;16.10;;
70165;SDS011;57541;47.408;18.822;2022-11-22T02:14:17;41.25;;;16.42;;
70165;SDS011;57541;47.408;18.822;2022-11-22T02:14:51;34.92;;;15.30;;
70165;SDS011;57541;47.408;18.822;2022-11-22T02:15:24;40.63;;;15.68;;
70165;SDS011;57541;47.408;18.822;2022-11-22T02:15:56;33.22;;;15.15;;
70165;SDS011;57541;47.408;18.822;2022-11-22T02:16:28;42.17;;;14.90;;
70165;SDS011;57541;47.408;18.822;2022-11-22T02:17:00;34.58;;;14.60;;
70165;SDS011;57541;47.408;18.822;2022-11-22T02:17:31;39.08;;;15.02;;
70165;SDS011;57541;47.408;18.822;2022-11-22T02:18:03;40.00;;;14.88;;
70165;SDS011;57541;47.408;18.822;2022-11-22T02:18:35;38.53;;;14.93;;
70165;SDS011;57541;47.408;18.822;2022-11-22T02:19:18;39.15;;;15.35;;
70165;SDS011;57541;47.408;18.822;2022-11-22T02:20:08;40.80;;;14.25;;
70165;SDS011;57541;47.408;18.822;2022-11-22T02:20:40;37.38;;;14.65;;
70165;SDS011;57541;47.408;18.822;2022-11-22T02:21:11;38.58;;;15.15;;
70165;SDS011;57541;47.408;18.822;2022-11-22T02:21:43;32.13;;;14.10;;
70165;SDS011;57541;47.408;18.822;2022-11-22T02:23:28;39.13;;;14.57;;
70165;SDS011;57541;47.408;18.822;2022-11-22T02:24:09;35.78;;;15.30;;
70165;SDS011;57541;47.408;18.822;2022-11-22T02:24:50;38.20;;;15.13;;
70165;SDS011;57541;47.408;18.822;2022-11-22T02:26:07;41.75;;;14.32;;
70165;SDS011;57541;47.408;18.822;2022-11-22T02:26:39;35.42;;;15.23;;
70165;SDS011;57541;47.408;18.822;2022-11-22T02:27:10;46.38;;;15.57;;
70165;SDS011;57541;47.408;18.822;2022-11-22T02:27:42;36.95;;;14.80;;
70165;SDS011;57541;47.408;18.822;2022-11-22T02:28:14;39.15;;;15.57;;
70165;SDS011;57541;47.408;18.822;2022-11-22T02:28:45;41.53;;;14.60;;
70165;SDS011;57541;47.408;18.822;2022-11-22T02:29:18;38.72;;;16.75;;
70165;SDS011;57541;47.408;18.822;2022-11-22T02:29:50;36.95;;;15.15;;
70165;SDS011;57541;47.408;18.822;2022-11-22T02:30:22;38.70;;;15.60;;
70165;SDS011;57541;47.408;18.822;2022-11-22T02:30:54;40.63;;;16.45;;
70165;SDS011;57541;47.408;18.822;2022-11-22T02:31:32;38.80;;;16.42;;
70165;SDS011;57541;47.408;18.822;2022-11-22T02:32:17;33.90;;;14.98;;
70165;SDS011;57541;47.408;18.822;2022-11-22T02:32:48;35.75;;;16.10;;
70165;SDS011;57541;47.408;18.822;2022-11-22T02:33:20;39.65;;;15.48;;
70165;SDS011;57541;47.408;18.822;2022-11-22T02:33:52;44.47;;;15.93;;
70165;SDS011;57541;47.408;18.822;2022-11-22T02:34:28;47.63;;;15.45;;
70165;SDS011;57541;47.408;18.822;2022-11-22T02:35:18;43.22;;;15.65;;
70165;SDS011;57541;47.408;18.822;2022-11-22T02:35:51;48.58;;;15.70;;
70165;SDS011;57541;47.408;18.822;2022-11-22T02:36:23;41.05;;;15.60;;
70165;SDS011;57541;47.408;18.822;2022-11-22T02:36:55;44.65;;;16.30;;
70165;SDS011;57541;47.408;18.822;2022-11-22T02:37:27;44.55;;;15.23;;
70165;SDS011;57541;47.408;18.822;2022-11-22T02:38:12;41.53;;;15.30;;
70165;SDS011;57541;47.408;18.822;2022-11-22T02:38:46;46.58;;;14.85;;
70165;SDS011;57541;47.408;18.822;2022-11-22T02:39:20;42.28;;;15.63;;
70165;SDS011;57541;47.408;18.822;2022-11-22T02:40:01;47.15;;;16.98;;
70165;SDS011;57541;47.408;18.822;2022-11-22T02:40:38;55.78;;;15.73;;
70165;SDS011;57541;47.408;18.822;2022-11-22T02:41:15;40.97;;;16.77;;
70165;SDS011;57541;47.408;18.822;2022-11-22T02:41:47;40.60;;;15.18;;
70165;SDS011;57541;47.408;18.822;2022-11-22T02:42:20;45.22;;;16.10;;
70165;SDS011;57541;47.408;18.822;2022-11-22T02:42:59;46.65;;;16.38;;
70165;SDS011;57541;47.408;18.822;2022-11-22T02:43:34;40.42;;;15.60;;
70165;SDS011;57541;47.408;18.822;2022-11-22T02:44:09;44.03;;;15.25;;
70165;SDS011;57541;47.408;18.822;2022-11-22T02:44:42;49.42;;;16.48;;
70165;SDS011;57541;47.408;18.822;2022-11-22T02:45:13;47.60;;;15.93;;
70165;SDS011;57541;47.408;18.822;2022-11-22T02:45:45;44.40;;;17.10;;
70165;SDS011;57541;47.408;18.822;2022-11-22T02:46:17;43.22;;;15.63;;
70165;SDS011;57541;47.408;18.822;2022-11-22T02:46:53;51.45;;;16.70;;
70165;SDS011;57541;47.408;18.822;2022-11-22T02:47:25;41.25;;;14.88;;
70165;SDS011;57541;47.408;18.822;2022-11-22T02:48:07;47.97;;;16.45;;
70165;SDS011;57541;47.408;18.822;2022-11-22T02:48:40;51.97;;;16.17;;
70165;SDS011;57541;47.408;18.822;2022-11-22T02:49:14;50.15;;;16.55;;
70165;SDS011;57541;47.408;18.822;2022-11-22T02:49:47;43.15;;;15.68;;
70165;SDS011;57541;47.408;18.822;2022-11-22T02:50:18;43.80;;;16.50;;
70165;SDS011;57541;47.408;18.822;2022-11-22T02:50:50;46.47;;;15.98;;
70165;SDS011;57541;47.408;18.822;2022-11-22T02:51:21;47.55;;;16.58;;
70165;SDS011;57541;47.408;18.822;2022-11-22T02:51:53;46.70;;;17.65;;
70165;SDS011;57541;47.408;18.822;2022-11-22T02:52:25;50.28;;;16.63;;
70165;SDS011;57541;47.408;18.822;2022-11-22T02:52:57;46.28;;;18.25;;
70165;SDS011;57541;47.408;18.822;2022-11-22T02:53:29;51.30;;;17.10;;
70165;SDS011;57541;47.408;18.822;2022-11-22T02:54:01;47.08;;;17.00;;
70165;SDS011;57541;47.408;18.822;2022-11-22T02:54:32;49.05;;;17.42;;
70165;SDS011;57541;47.408;18.822;2022-11-22T02:55:04;48.08;;;17.50;;
70165;SDS011;57541;47.408;18.822;2022-11-22T02:55:35;54.97;;;16.27;;
70165;SDS011;57541;47.408;18.822;2022-11-22T02:56:07;52.75;;;16.77;;
70165;SDS011;57541;47.408;18.822;2022-11-22T02:56:39;51.05;;;17.15;;
70165;SDS011;57541;47.408;18.822;2022-11-22T02:57:11;47.47;;;17.33;;
70165;SDS011;57541;47.408;18.822;2022-11-22T02:57:43;52.42;;;17.77;;
70165;SDS011;57541;47.408;18.822;2022-11-22T02:58:15;48.63;;;16.45;;
70165;SDS011;57541;47.408;18.822;2022-11-22T02:58:46;45.90;;;17.25;;
70165;SDS011;57541;47.408;18.822;2022-11-22T02:59:18;48.88;;;17.42;;
70165;SDS011;57541;47.408;18.822;2022-11-22T02:59:49;45.92;;;16.25;;
70165;SDS011;57541;47.408;18.822;2022-11-22T03:00:21;46.97;;;16.63;;
70165;SDS011;57541;47.408;18.822;2022-11-22T03:00:53;44.78;;;16.27;;
70165;SDS011;57541;47.408;18.822;2022-11-22T03:01:25;47.42;;;16.30;;
70165;SDS011;57541;47.408;18.822;2022-11-22T03:01:57;43.35;;;16.92;;
70165;SDS011;57541;47.408;18.822;2022-11-22T03:02:33;44.35;;;16.48;;
70165;SDS011;57541;47.408;18.822;2022-11-22T03:03:05;47.38;;;17.10;;
70165;SDS011;57541;47.408;18.822;2022-11-22T03:03:36;42.55;;;16.38;;
70165;SDS011;57541;47.408;18.822;2022-11-22T03:04:08;42.35;;;16.65;;
70165;SDS011;57541;47.408;18.822;2022-11-22T03:04:40;47.72;;;16.85;;
70165;SDS011;57541;47.408;18.822;2022-11-22T03:05:11;47.13;;;17.17;;
70165;SDS011;57541;47.408;18.822;2022-11-22T03:05:43;43.75;;;17.27;;
70165;SDS011;57541;47.408;18.822;2022-11-22T03:06:15;47.53;;;17.13;;
70165;SDS011;57541;47.408;18.822;2022-11-22T03:06:46;54.78;;;17.88;;
70165;SDS011;57541;47.408;18.822;2022-11-22T03:07:18;46.60;;;16.20;;
70165;SDS011;57541;47.408;18.822;2022-11-22T03:07:50;46.95;;;16.20;;
70165;SDS011;57541;47.408;18.822;2022-11-22T03:08:21;37.55;;;15.85;;
70165;SDS011;57541;47.408;18.822;2022-11-22T03:08:53;43.28;;;17.00;;
70165;SDS011;57541;47.408;18.822;2022-11-22T03:09:26;52.17;;;16.63;;
70165;SDS011;57541;47.408;18.822;2022-11-22T03:09:59;46.70;;;16.67;;
70165;SDS011;57541;47.408;18.822;2022-11-22T03:10:31;49.47;;;17.33;;
70165;SDS011;57541;47.408;18.822;2022-11-22T03:11:02;48.15;;;17.40;;
70165;SDS011;57541;47.408;18.822;2022-11-22T03:11:34;52.53;;;17.13;;
70165;SDS011;57541;47.408;18.822;2022-11-22T03:12:05;46.47;;;17.55;;
70165;SDS011;57541;47.408;18.822;2022-11-22T03:12:37;48.53;;;17.10;;
70165;SDS011;57541;47.408;18.822;2022-11-22T03:13:09;45.30;;;16.50;;
70165;SDS011;57541;47.408;18.822;2022-11-22T03:13:40;54.92;;;17.70;;